Главная страница
METAR-TAF:

METAR-TAF

Аэропорты :

Шёвде, Швеция

широта: 58-27N, долгота: 013-58E, высота над уровнем моря: 98 м

Текущие метеонаблюдения

Эта сводка был подготовлена 39 минут назад, в 10:20 UTC
Ветер 2 Узел переменных направлений
Температура 27°C
Влажность 51%
Давление 1021 hPa
Видимость 10 км и более

METAR: ESGR 091020Z AUTO VRB02KT 9999 NCD 27/16 Q1021

Время: 12:59 (10:59 UTC)


TAF: отсутствует

Метеонаблюдения и прогнозы для более 4000 аэропортов (сводки METAR и TAF).

Имеющиеся станции представлены на карте желтыми и красными точками.

Чтобы увидеть название станции, наведите на нее мышь.

Затем щелкните, чтобы увидеть метеонаблюдения и метеопрогнозы.

Управление картой: чтобы увеличить масштаб, щелкните зеленые кнопки с черным крестиком; чтобы уменьшить масштаб, щелкните зеленую кнопку с тире; для просмотра соседних карт щелкайте зеленые стрелки.


METAR-TAF: